»·PEaware :: N604TT KWJF-KBFL

N604TT :: KWJF-KBFL

FLIGHT INFORMATION

Flight Status: Arrived
Operator: Privately registered:
United States
More flights under this callsign
Pilot: Anonymous 33102 (33102)
Aircraft: CESSNA 172 SKYHAWK
(C172)
More flights by this aircraft type
Origin: KWJF Gen Fox
United States
Destination: KBFL Meadows
United States
More flights between these airports :: More routes between these airports
Route: LHS V165 AMONT
File this flight plan on PilotEdge
Remarks:
Altitude:
(Current/Filed)
10,000ft
Speed:
(Current/Filed)
120kts
Departed: 22-Feb-21 12:07 PM
Arrived: 22-Feb-21 12:56 PM
Distance/Time
Traveled:
59nm/0:49
Distance/Time
To Go:
Arrived

Flight Plot

Page will automatically refresh every two minutes.

Flight plan parsing failed; only flown route is shown


Map Options




Map Legend


Flown Route
Filed Route
Departure Airport
Arrival Airport
Navaid (VOR, NDB)
Fix

Horizontal Profiles

Position Reports

Time Latitude Longitude Heading Altitude Ground
Speed
22-Feb-21 11:52 34.739602 -118.213555 250 2340ft 0kts
22-Feb-21 11:53 34.739602 -118.213555 250 2340ft 0kts
22-Feb-21 11:54 34.739602 -118.213555 250 2340ft 0kts
22-Feb-21 11:55 34.739602 -118.213555 250 2340ft 0kts
22-Feb-21 11:56 34.739602 -118.213555 250 2340ft 0kts
22-Feb-21 11:57 34.739602 -118.213555 250 2340ft 0kts
22-Feb-21 11:58 34.739602 -118.213555 250 2340ft 0kts
22-Feb-21 11:59 34.739602 -118.213555 250 2340ft 0kts
22-Feb-21 12:00 34.739602 -118.213555 250 2340ft 0kts
22-Feb-21 12:01 34.740533 -118.214644 315 2340ft 12kts
22-Feb-21 12:02 34.740432 -118.217267 252 2343ft 18kts
22-Feb-21 12:03 34.738971 -118.222788 252 2346ft 30kts
22-Feb-21 12:04 34.737279 -118.229547 295 2350ft 5kts
22-Feb-21 12:05 34.737295 -118.229572 320 2350ft 0kts
22-Feb-21 12:06 34.738517 -118.228130 71 2350ft 43kts
22-Feb-21 12:07 34.742933 -118.210718 73 2662ft 87kts
22-Feb-21 12:08 34.747838 -118.190685 73 3305ft 81kts
22-Feb-21 12:09 34.757817 -118.153326 45 4328ft 82kts
22-Feb-21 12:10 34.761643 -118.174997 229 5221ft 83kts
22-Feb-21 12:11 34.745327 -118.203281 249 5964ft 84kts
22-Feb-21 12:12 34.738218 -118.236659 258 6650ft 85kts
22-Feb-21 12:13 34.733621 -118.264407 258 7178ft 86kts
22-Feb-21 12:14 34.727887 -118.299911 258 7813ft 87kts
22-Feb-21 12:15 34.724565 -118.320500 258 8164ft 87kts
22-Feb-21 12:16 34.720042 -118.348508 258 8626ft 88kts
22-Feb-21 12:17 34.715593 -118.376005 258 9067ft 89kts
22-Feb-21 12:18 34.711421 -118.401755 258 9470ft 89kts
22-Feb-21 12:19 34.707299 -118.427221 258 9613ft 110kts
22-Feb-21 12:20 34.702032 -118.459835 258 9608ft 126kts
22-Feb-21 12:21 34.695254 -118.501538 258 9606ft 130kts
22-Feb-21 12:22 34.689336 -118.537815 258 9624ft 129kts
22-Feb-21 12:23 34.690758 -118.573299 314 9624ft 129kts
22-Feb-21 12:24 34.715805 -118.588286 342 9624ft 130kts
22-Feb-21 12:25 34.739750 -118.597137 343 9624ft 130kts
22-Feb-21 12:26 34.762673 -118.605317 343 9624ft 130kts
22-Feb-21 12:27 34.787994 -118.614334 343 9624ft 130kts
22-Feb-21 12:28 34.813812 -118.623533 343 9624ft 130kts
22-Feb-21 12:29 34.839488 -118.632686 343 9624ft 130kts
22-Feb-21 12:30 34.881781 -118.647780 343 9676ft 128kts
22-Feb-21 12:31 34.924954 -118.663199 343 9679ft 130kts
22-Feb-21 12:32 34.952581 -118.673075 343 9679ft 130kts
22-Feb-21 12:33 34.981537 -118.683436 343 9679ft 130kts
22-Feb-21 12:34 35.016617 -118.695999 343 9679ft 130kts
22-Feb-21 12:35 35.054529 -118.709930 342 9668ft 116kts
22-Feb-21 12:36 35.077617 -118.718696 341 9680ft 103kts
22-Feb-21 12:37 35.102648 -118.728534 342 9214ft 116kts
22-Feb-21 12:38 35.132896 -118.737944 346 8439ft 107kts
22-Feb-21 12:39 35.156054 -118.745571 344 7790ft 106kts
22-Feb-21 12:40 35.181641 -118.754646 342 7061ft 104kts
22-Feb-21 12:41 35.203380 -118.772682 316 6315ft 102kts
22-Feb-21 12:42 35.222449 -118.796548 313 5474ft 104kts
22-Feb-21 12:43 35.240782 -118.820387 313 4641ft 104kts
22-Feb-21 12:44 35.259230 -118.844451 313 3794ft 103kts
22-Feb-21 12:45 35.278018 -118.866488 313 2965ft 102kts
22-Feb-21 12:46 35.296119 -118.889772 314 2193ft 93kts
22-Feb-21 12:47 35.310748 -118.907766 315 2178ft 93kts
22-Feb-21 12:48 35.325966 -118.926170 315 2191ft 75kts
22-Feb-21 12:49 35.342600 -118.946200 315 2181ft 97kts
22-Feb-21 12:50 35.359770 -118.966838 315 2176ft 90kts
22-Feb-21 12:51 35.377593 -118.988297 315 1978ft 92kts
22-Feb-21 12:52 35.394709 -119.008725 315 1544ft 92kts
22-Feb-21 12:53 35.412112 -119.029610 313 1054ft 93kts
22-Feb-21 12:54 35.426906 -119.047964 316 653ft 68kts
22-Feb-21 12:55 35.436295 -119.058146 36 492ft 7kts
22-Feb-21 12:56 35.436498 -119.057931 45 493ft 0kts
22-Feb-21 12:57 35.436853 -119.057679 5 495ft 12kts
22-Feb-21 12:58 35.437111 -119.055164 90 500ft 0kts

Navigation Log

Ident Type
Flight plan parsing failed, navigation log unavailable